createdAt,value
2022-08-26T00:01:52.949Z,12.50
2022-08-26T00:04:21.925Z,9.50
2022-08-26T00:06:50.893Z,10.05
2022-08-26T00:09:18.513Z,11.77
2022-08-26T00:11:47.278Z,8.35
2022-08-26T00:14:16.115Z,9.05
2022-08-26T00:16:48.226Z,13.75
2022-08-26T00:19:16.837Z,5.95
2022-08-26T00:21:44.460Z,10.30
2022-08-26T00:24:13.467Z,7.68
2022-08-26T00:26:41.693Z,7.50
2022-08-26T00:29:10.572Z,8.23
2022-08-26T00:31:38.373Z,13.23
2022-08-26T00:34:07.522Z,9.43
2022-08-26T00:36:37.604Z,8.38
2022-08-26T00:39:08.008Z,11.43
2022-08-26T00:41:38.516Z,9.18
2022-08-26T00:44:06.838Z,7.53
2022-08-26T00:46:36.550Z,7.03
2022-08-26T00:49:11.915Z,10.25
2022-08-26T00:51:47.042Z,12.40
2022-08-26T00:54:16.024Z,9.90
2022-08-26T00:56:52.927Z,12.05
2022-08-26T00:59:21.371Z,13.50
2022-08-26T01:01:49.507Z,14.10
2022-08-26T01:04:21.246Z,9.00
2022-08-26T01:06:51.523Z,10.27
2022-08-26T01:09:20.926Z,12.68
2022-08-26T01:11:54.353Z,12.00
2022-08-26T01:14:23.501Z,16.27
2022-08-26T01:16:51.274Z,13.77
2022-08-26T01:19:24.327Z,11.95
2022-08-26T01:21:58.079Z,10.77
2022-08-26T01:24:29.766Z,11.18
2022-08-26T01:27:01.516Z,11.55
2022-08-26T01:29:30.861Z,9.80
2022-08-26T01:31:59.257Z,14.95
2022-08-26T01:34:29.850Z,9.43
2022-08-26T01:37:05.530Z,13.50
2022-08-26T01:39:36.674Z,10.60
2022-08-26T01:42:10.361Z,10.60
2022-08-26T01:44:44.926Z,10.63
2022-08-26T01:47:15.461Z,10.13
2022-08-26T01:49:45.564Z,11.43
2022-08-26T01:52:13.212Z,10.68
2022-08-26T01:54:42.486Z,11.20
2022-08-26T01:57:15.422Z,10.52
2022-08-26T01:59:43.458Z,8.40
2022-08-26T02:02:11.251Z,12.07
2022-08-26T02:04:44.288Z,15.32
2022-08-26T02:07:12.427Z,12.38
2022-08-26T02:09:42.515Z,10.68
2022-08-26T02:12:13.071Z,19.10
2022-08-26T02:14:44.457Z,10.70
2022-08-26T02:17:12.579Z,10.52
2022-08-26T02:19:42.697Z,13.70
2022-08-26T02:22:16.092Z,9.93
2022-08-26T02:24:50.308Z,11.63
2022-08-26T02:27:20.324Z,13.02
2022-08-26T02:29:53.141Z,9.38
2022-08-26T02:32:20.716Z,11.85
2022-08-26T02:34:48.262Z,11.95
2022-08-26T02:37:17.728Z,10.75
2022-08-26T02:39:45.741Z,10.85
2022-08-26T02:42:16.958Z,11.65
2022-08-26T02:44:44.508Z,12.15
2022-08-26T02:47:14.635Z,10.25
2022-08-26T02:49:44.254Z,10.63
2022-08-26T02:52:12.677Z,16.85
2022-08-26T02:54:40.270Z,14.75
2022-08-26T02:57:07.814Z,10.55
2022-08-26T02:59:39.117Z,11.60
2022-08-26T03:02:07.173Z,15.43
2022-08-26T03:04:35.931Z,15.52
2022-08-26T03:07:03.540Z,12.93
2022-08-26T03:09:31.115Z,13.40
2022-08-26T03:11:59.186Z,11.77
2022-08-26T03:14:28.113Z,21.52
2022-08-26T03:16:58.627Z,13.98
2022-08-26T03:19:27.077Z,15.75
2022-08-26T03:21:57.834Z,22.95
2022-08-26T03:24:26.261Z,22.60
2022-08-26T03:26:53.825Z,20.15
2022-08-26T03:29:39.643Z,22.55
2022-08-26T03:32:08.758Z,23.40
2022-08-26T03:34:37.123Z,25.52
2022-08-26T03:37:06.376Z,23.15
2022-08-26T03:39:33.980Z,24.65
2022-08-26T03:42:01.869Z,30.70
2022-08-26T03:44:29.419Z,28.05
2022-08-26T03:46:56.948Z,26.95
2022-08-26T03:49:25.846Z,31.30
2022-08-26T03:51:56.587Z,36.85
2022-08-26T03:54:24.479Z,33.97
2022-08-26T03:56:52.023Z,35.72
2022-08-26T03:59:20.894Z,44.50
2022-08-26T04:01:48.528Z,42.80
2022-08-26T04:04:16.999Z,49.92
2022-08-26T04:06:45.909Z,48.10
2022-08-26T04:09:15.788Z,43.80
2022-08-26T04:11:45.088Z,48.13
2022-08-26T04:14:20.230Z,48.15
2022-08-26T04:16:48.306Z,50.05
2022-08-26T04:19:16.916Z,49.33
2022-08-26T04:21:47.217Z,51.53
2022-08-26T04:24:17.830Z,49.05
2022-08-26T04:26:45.491Z,52.63
2022-08-26T04:29:15.715Z,55.42
2022-08-26T04:31:43.476Z,55.50
2022-08-26T04:34:11.235Z,50.45
2022-08-26T04:36:42.977Z,55.65
2022-08-26T04:39:16.499Z,62.28
2022-08-26T04:41:45.243Z,62.97
2022-08-26T04:44:13.663Z,65.20
2022-08-26T04:46:43.760Z,66.18
2022-08-26T04:49:12.476Z,69.82
2022-08-26T04:51:40.955Z,77.22
2022-08-26T04:54:08.741Z,74.78
2022-08-26T04:56:40.279Z,70.80
2022-08-26T04:59:16.788Z,71.88
2022-08-26T05:01:45.533Z,71.60
2022-08-26T05:04:16.198Z,69.97
2022-08-26T05:06:46.745Z,85.13
2022-08-26T05:09:14.467Z,83.20
2022-08-26T05:11:45.570Z,87.93
2022-08-26T05:14:16.839Z,93.75
2022-08-26T05:16:44.520Z,106.25
2022-08-26T05:19:18.755Z,101.68
2022-08-26T05:21:47.694Z,99.05
2022-08-26T05:24:15.470Z,100.25
2022-08-26T05:26:44.813Z,100.55
2022-08-26T05:29:12.621Z,102.32
2022-08-26T05:31:40.309Z,103.18
2022-08-26T05:34:08.587Z,109.40
2022-08-26T05:36:37.847Z,108.55
2022-08-26T05:39:07.015Z,106.70
2022-08-26T05:41:38.580Z,104.88
2022-08-26T05:44:10.282Z,100.90
2022-08-26T05:46:39.057Z,104.82
2022-08-26T05:49:12.561Z,105.20
2022-08-26T05:51:41.274Z,97.70
2022-08-26T05:54:10.345Z,101.32
2022-08-26T05:56:38.631Z,92.78
2022-08-26T05:59:14.617Z,95.18
2022-08-26T06:01:43.381Z,94.22
2022-08-26T06:04:11.665Z,97.32
2022-08-26T06:06:41.265Z,93.40
2022-08-26T06:09:11.072Z,96.32
2022-08-26T06:11:40.189Z,93.07
2022-08-26T06:14:09.801Z,88.13
2022-08-26T06:16:40.814Z,87.53
2022-08-26T06:19:11.499Z,88.65
2022-08-26T06:21:41.203Z,82.25
2022-08-26T06:24:29.310Z,85.35
2022-08-26T06:27:01.382Z,77.13
2022-08-26T06:29:33.029Z,72.20
2022-08-26T06:32:02.559Z,76.05
2022-08-26T06:34:31.023Z,73.38
2022-08-26T06:37:01.420Z,71.95
2022-08-26T06:39:31.297Z,73.65
2022-08-26T06:41:59.201Z,73.78
2022-08-26T06:44:27.193Z,83.70
2022-08-26T06:46:56.157Z,72.57
2022-08-26T06:49:27.222Z,70.18
2022-08-26T06:51:57.900Z,74.13
2022-08-26T06:54:26.388Z,74.78
2022-08-26T06:56:55.817Z,73.63
2022-08-26T06:59:23.945Z,71.82
2022-08-26T07:01:52.238Z,73.18
2022-08-26T07:04:23.366Z,76.45
2022-08-26T07:06:53.493Z,69.10
2022-08-26T07:09:22.691Z,71.55
2022-08-26T07:11:51.133Z,69.20
2022-08-26T07:14:19.302Z,68.72
2022-08-26T07:16:49.340Z,63.80
2022-08-26T07:19:30.281Z,59.63
2022-08-26T07:22:01.665Z,61.33
2022-08-26T07:24:30.058Z,62.35
2022-08-26T07:27:00.517Z,57.42
2022-08-26T07:29:29.159Z,56.28
2022-08-26T07:31:56.904Z,59.22
2022-08-26T07:34:25.303Z,61.60
2022-08-26T07:36:53.981Z,59.67
2022-08-26T07:39:28.227Z,65.63
2022-08-26T07:41:59.243Z,56.40
2022-08-26T07:44:28.046Z,60.13
2022-08-26T07:46:55.641Z,63.33
2022-08-26T07:49:26.741Z,58.30
2022-08-26T07:51:56.330Z,58.08
2022-08-26T07:54:26.779Z,57.20
2022-08-26T07:56:56.642Z,58.13
2022-08-26T07:59:24.629Z,60.20
2022-08-26T08:01:52.383Z,56.05
2022-08-26T08:04:25.597Z,55.53
2022-08-26T08:06:54.452Z,62.57
2022-08-26T08:09:22.681Z,60.13
2022-08-26T08:11:51.288Z,64.40
2022-08-26T08:14:22.096Z,62.50
2022-08-26T08:16:51.000Z,60.97
2022-08-26T08:19:22.984Z,61.05
2022-08-26T08:21:51.724Z,62.35
2022-08-26T08:24:19.850Z,60.95
2022-08-26T08:26:48.109Z,61.67
2022-08-26T08:29:15.707Z,58.05
2022-08-26T08:31:56.548Z,61.97
2022-08-26T08:34:26.446Z,56.22
2022-08-26T08:36:54.391Z,62.08
2022-08-26T08:39:26.216Z,62.80
2022-08-26T08:42:06.467Z,56.78
2022-08-26T08:44:37.836Z,51.38
2022-08-26T08:47:21.312Z,49.30
2022-08-26T08:49:49.010Z,51.03
2022-08-26T08:52:28.388Z,54.35
2022-08-26T08:54:56.843Z,56.17
2022-08-26T08:57:32.849Z,53.33
2022-08-26T09:00:09.228Z,45.15
2022-08-26T09:02:48.535Z,45.85
2022-08-26T09:05:22.638Z,48.85
2022-08-26T09:07:57.165Z,51.05
2022-08-26T09:13:00.422Z,49.80
2022-08-26T09:15:36.718Z,51.08
2022-08-26T09:18:17.247Z,48.65
2022-08-26T09:20:50.531Z,41.97
2022-08-26T09:23:18.323Z,40.50
2022-08-26T09:25:48.554Z,45.60
2022-08-26T09:28:18.624Z,43.47
2022-08-26T09:30:47.471Z,47.50
2022-08-26T09:33:19.580Z,44.20
2022-08-26T09:35:48.837Z,42.97
2022-08-26T09:38:26.764Z,42.60
2022-08-26T09:40:59.279Z,42.92
2022-08-26T09:43:28.435Z,47.00
2022-08-26T09:46:13.231Z,38.95
2022-08-26T09:48:43.456Z,37.17
2022-08-26T09:51:28.439Z,38.40
2022-08-26T09:53:58.333Z,45.20
2022-08-26T09:56:28.319Z,39.22
2022-08-26T09:58:57.344Z,42.88
2022-08-26T10:01:32.196Z,36.97
2022-08-26T10:04:10.988Z,41.22
2022-08-26T10:06:42.237Z,37.17
2022-08-26T10:09:14.369Z,40.35
2022-08-26T10:11:47.898Z,45.67
2022-08-26T10:14:24.283Z,45.22
2022-08-26T10:17:00.450Z,40.50
2022-08-26T10:19:41.748Z,42.10
2022-08-26T10:22:26.730Z,38.50
2022-08-26T10:24:59.738Z,45.15
2022-08-26T10:27:35.499Z,44.78
2022-08-26T10:30:07.495Z,44.67
2022-08-26T10:32:41.445Z,44.08
2022-08-26T10:35:14.053Z,40.72
2022-08-26T10:37:47.946Z,42.00
2022-08-26T10:40:21.303Z,37.15
2022-08-26T10:42:56.745Z,40.58
2022-08-26T10:45:27.889Z,44.95
2022-08-26T10:48:01.227Z,40.38
2022-08-26T10:50:33.768Z,38.60
2022-08-26T10:53:08.779Z,35.95
2022-08-26T10:55:43.166Z,37.25
2022-08-26T10:58:29.325Z,35.55
2022-08-26T11:01:23.277Z,34.08
2022-08-26T11:03:58.780Z,28.95
2022-08-26T11:06:31.242Z,26.00
2022-08-26T11:09:01.065Z,22.23
2022-08-26T11:11:45.283Z,21.67
2022-08-26T11:14:41.090Z,21.73
2022-08-26T11:17:56.538Z,21.85
2022-08-26T11:20:35.110Z,22.42
2022-08-26T11:23:50.831Z,23.27
2022-08-26T11:26:43.156Z,21.13
2022-08-26T11:29:13.205Z,26.52
2022-08-26T11:31:56.145Z,23.83
2022-08-26T11:34:56.534Z,24.02
2022-08-26T11:37:32.381Z,27.50
2022-08-26T11:40:03.980Z,27.63
2022-08-26T11:42:39.391Z,30.73
2022-08-26T11:45:18.100Z,27.65
2022-08-26T11:47:46.815Z,32.22
2022-08-26T11:50:20.996Z,27.85
2022-08-26T11:52:53.574Z,29.20
2022-08-26T11:55:23.404Z,20.58
2022-08-26T11:57:54.257Z,20.20
2022-08-26T12:00:23.537Z,21.80
2022-08-26T12:02:52.483Z,20.45
2022-08-26T12:05:24.933Z,26.10
2022-08-26T12:07:55.121Z,19.90
2022-08-26T12:10:30.779Z,18.73
2022-08-26T12:13:00.549Z,20.35
2022-08-26T12:15:29.852Z,19.27
2022-08-26T12:17:59.245Z,21.77
2022-08-26T12:20:45.782Z,20.52
2022-08-26T12:23:25.321Z,16.77
2022-08-26T12:26:06.751Z,21.08
2022-08-26T12:28:35.087Z,16.73
2022-08-26T12:31:04.970Z,18.65
2022-08-26T12:33:35.915Z,20.02
2022-08-26T12:36:04.830Z,18.13
2022-08-26T12:38:36.756Z,18.25
2022-08-26T12:41:05.785Z,16.20
2022-08-26T12:43:43.011Z,13.60
2022-08-26T12:46:13.765Z,14.88
2022-08-26T12:48:44.699Z,12.70
2022-08-26T12:51:28.892Z,18.52
2022-08-26T12:53:57.491Z,18.55
2022-08-26T12:56:34.944Z,20.73
2022-08-26T12:59:11.196Z,15.90
2022-08-26T13:01:44.030Z,15.68
2022-08-26T13:04:38.609Z,20.13
2022-08-26T13:07:21.845Z,15.50
2022-08-26T13:09:51.145Z,17.95
2022-08-26T13:12:28.699Z,19.98
2022-08-26T13:14:58.706Z,20.60
2022-08-26T13:17:27.005Z,14.98
2022-08-26T13:19:54.622Z,17.38
2022-08-26T13:22:24.910Z,14.90
2022-08-26T13:24:55.205Z,12.45
2022-08-26T13:27:26.008Z,18.38
2022-08-26T13:29:57.109Z,15.20
2022-08-26T13:32:27.593Z,20.92
2022-08-26T13:34:57.270Z,14.85
2022-08-26T13:37:34.376Z,20.13
2022-08-26T13:40:02.682Z,14.25
2022-08-26T13:42:31.109Z,13.30
2022-08-26T13:45:00.276Z,21.13
2022-08-26T13:47:28.536Z,14.68
2022-08-26T13:49:56.220Z,10.73
2022-08-26T13:52:27.239Z,9.50
2022-08-26T13:54:58.770Z,14.27
2022-08-26T13:57:27.888Z,14.13
2022-08-26T13:59:56.995Z,14.65
2022-08-26T14:02:26.439Z,13.02
2022-08-26T14:04:55.283Z,16.48
2022-08-26T14:07:23.316Z,10.48
2022-08-26T14:09:50.937Z,14.13
2022-08-26T14:12:18.825Z,14.13
2022-08-26T14:14:46.406Z,15.70
2022-08-26T14:17:17.966Z,9.25
2022-08-26T14:19:48.535Z,11.93
2022-08-26T14:22:17.977Z,11.68
2022-08-26T14:24:45.762Z,9.13
2022-08-26T14:27:14.134Z,11.35
2022-08-26T14:29:42.257Z,12.20
2022-08-26T14:32:13.286Z,13.38
2022-08-26T14:34:42.588Z,8.63
2022-08-26T14:37:15.194Z,12.18
2022-08-26T14:39:43.028Z,12.73
2022-08-26T14:42:11.120Z,12.73
2022-08-26T14:44:39.931Z,13.93
2022-08-26T14:47:07.806Z,12.55
2022-08-26T14:49:35.694Z,9.10
2022-08-26T14:52:03.590Z,11.05
2022-08-26T14:54:32.488Z,9.63
2022-08-26T14:57:03.539Z,9.93
2022-08-26T14:59:33.469Z,7.55
2022-08-26T15:02:01.505Z,9.57
2022-08-26T15:04:29.717Z,10.63
2022-08-26T15:06:59.566Z,8.68
2022-08-26T15:09:28.879Z,13.50
2022-08-26T15:11:57.922Z,7.82
2022-08-26T15:14:28.607Z,7.93
2022-08-26T15:16:58.752Z,10.40
2022-08-26T15:19:27.410Z,9.10
2022-08-26T15:21:55.533Z,8.18
2022-08-26T15:24:26.052Z,11.73
2022-08-26T15:26:54.191Z,12.70
2022-08-26T15:29:24.789Z,14.38
2022-08-26T15:31:57.196Z,10.25
2022-08-26T15:34:25.242Z,12.85
2022-08-26T15:36:52.782Z,6.88
2022-08-26T15:39:21.142Z,13.73
2022-08-26T15:41:48.737Z,8.63
2022-08-26T15:44:17.275Z,12.23
2022-08-26T15:46:46.442Z,10.68
2022-08-26T15:49:18.629Z,9.75
2022-08-26T15:51:49.072Z,13.13
2022-08-26T15:54:18.395Z,12.30
2022-08-26T15:56:49.053Z,9.10
2022-08-26T15:59:17.196Z,11.52
2022-08-26T16:01:46.596Z,9.40
2022-08-26T16:04:14.790Z,8.60
2022-08-26T16:06:43.475Z,15.43
2022-08-26T16:09:11.630Z,7.38
2022-08-26T16:11:39.454Z,10.55
2022-08-26T16:14:07.733Z,14.73
2022-08-26T16:16:39.157Z,11.80
2022-08-26T16:19:08.801Z,11.65
2022-08-26T16:21:37.167Z,10.50
2022-08-26T16:24:05.518Z,12.57
2022-08-26T16:26:35.138Z,7.47
2022-08-26T16:29:04.761Z,9.55
2022-08-26T16:31:32.390Z,8.43
2022-08-26T16:34:00.053Z,13.93
2022-08-26T16:36:29.029Z,12.52
2022-08-26T16:38:57.549Z,9.80
2022-08-26T16:41:26.784Z,10.23
2022-08-26T16:43:54.832Z,6.72
2022-08-26T16:46:25.521Z,9.18
2022-08-26T16:48:53.807Z,9.45
2022-08-26T16:51:23.886Z,13.30
2022-08-26T16:53:54.396Z,9.02
2022-08-26T16:56:33.461Z,10.68
2022-08-26T16:59:02.530Z,9.30
2022-08-26T17:01:30.328Z,12.63
2022-08-26T17:03:58.068Z,6.70
2022-08-26T17:06:25.702Z,10.88
2022-08-26T17:08:55.154Z,9.45
2022-08-26T17:11:22.739Z,8.45
2022-08-26T17:13:50.278Z,8.50
2022-08-26T17:16:17.910Z,6.05
2022-08-26T17:18:45.488Z,6.97
2022-08-26T17:21:14.378Z,5.97
2022-08-26T17:23:43.309Z,10.25
2022-08-26T17:26:12.890Z,8.40
2022-08-26T17:28:40.657Z,6.57
2022-08-26T17:31:09.007Z,10.55
2022-08-26T17:33:37.006Z,9.32
2022-08-26T17:36:06.872Z,7.03
2022-08-26T17:38:34.591Z,8.07
2022-08-26T17:41:02.161Z,8.15
2022-08-26T17:43:31.313Z,10.35
2022-08-26T17:46:06.662Z,12.38
2022-08-26T17:48:35.137Z,12.05
2022-08-26T17:51:07.613Z,8.07
2022-08-26T17:53:35.175Z,9.98
2022-08-26T17:56:02.729Z,13.95
2022-08-26T17:58:31.975Z,7.97
2022-08-26T18:01:02.249Z,7.50
2022-08-26T18:03:29.904Z,8.98
2022-08-26T18:05:57.569Z,11.68
2022-08-26T18:08:25.561Z,11.52
2022-08-26T18:10:53.512Z,10.02
2022-08-26T18:13:21.309Z,10.93
2022-08-26T18:15:50.258Z,8.57
2022-08-26T18:18:17.916Z,9.40
2022-08-26T18:20:46.201Z,8.40
2022-08-26T18:23:19.541Z,8.75
2022-08-26T18:25:47.071Z,10.68
2022-08-26T18:28:14.647Z,8.85
2022-08-26T18:30:43.194Z,11.85
2022-08-26T18:33:13.497Z,8.27
2022-08-26T18:35:42.048Z,5.47
2022-08-26T18:38:11.064Z,7.93
2022-08-26T18:40:39.801Z,9.82
2022-08-26T18:43:07.709Z,7.40
2022-08-26T18:45:35.789Z,9.32
2022-08-26T18:48:04.694Z,5.43
2022-08-26T18:50:33.753Z,8.05
2022-08-26T18:53:02.348Z,10.85
2022-08-26T18:55:29.901Z,7.93
2022-08-26T18:57:57.531Z,6.57
2022-08-26T19:00:25.136Z,7.43
2022-08-26T19:02:55.972Z,5.70
2022-08-26T19:05:25.372Z,4.07
2022-08-26T19:07:56.453Z,7.82
2022-08-26T19:10:24.494Z,5.82
2022-08-26T19:12:53.732Z,7.85
2022-08-26T19:15:22.999Z,7.28
2022-08-26T19:17:50.592Z,8.77
2022-08-26T19:20:18.150Z,13.10
2022-08-26T19:22:46.130Z,6.22
2022-08-26T19:25:15.518Z,7.63
2022-08-26T19:27:44.414Z,7.90
2022-08-26T19:30:12.261Z,5.75
2022-08-26T19:32:39.789Z,8.60
2022-08-26T19:35:08.480Z,8.93
2022-08-26T19:37:36.138Z,5.60
2022-08-26T19:40:04.913Z,7.45
2022-08-26T19:42:34.023Z,6.45
2022-08-26T19:45:20.225Z,5.53
2022-08-26T19:47:53.890Z,9.13
2022-08-26T19:50:22.140Z,6.50
2022-08-26T19:52:50.089Z,13.93
2022-08-26T19:55:18.560Z,10.85
2022-08-26T19:57:47.575Z,13.77
2022-08-26T20:00:19.189Z,12.35
2022-08-26T20:02:48.168Z,9.32
2022-08-26T20:05:17.408Z,8.63
2022-08-26T20:07:45.179Z,10.52
2022-08-26T20:10:14.057Z,8.35
2022-08-26T20:12:42.520Z,7.75
2022-08-26T20:15:13.551Z,8.10
2022-08-26T20:17:41.687Z,11.10
2022-08-26T20:20:33.201Z,10.82
2022-08-26T20:23:01.841Z,7.18
2022-08-26T20:25:29.421Z,6.32
2022-08-26T20:27:56.986Z,7.68
2022-08-26T20:30:25.868Z,7.35
2022-08-26T20:32:53.437Z,12.52
2022-08-26T20:35:21.261Z,6.10
2022-08-26T20:37:48.833Z,8.10
2022-08-26T20:40:16.535Z,6.00
2022-08-26T20:42:44.189Z,9.52
2022-08-26T20:45:12.229Z,10.63
2022-08-26T20:47:41.692Z,5.72
2022-08-26T20:50:10.006Z,7.53
2022-08-26T20:52:37.751Z,7.43
2022-08-26T20:55:05.968Z,6.55
2022-08-26T20:57:33.864Z,8.50
2022-08-26T21:00:02.151Z,11.88
2022-08-26T21:02:29.819Z,10.25
2022-08-26T21:04:59.117Z,11.98
2022-08-26T21:07:26.694Z,6.40
2022-08-26T21:09:55.196Z,11.13
2022-08-26T21:12:23.084Z,9.32
2022-08-26T21:14:50.685Z,9.55
2022-08-26T21:17:18.591Z,8.50
2022-08-26T21:19:46.119Z,11.63
2022-08-26T21:22:15.047Z,11.18
2022-08-26T21:24:42.568Z,10.20
2022-08-26T21:27:10.138Z,11.98
2022-08-26T21:29:37.945Z,6.70
2022-08-26T21:32:06.329Z,11.20
2022-08-26T21:34:33.981Z,8.48
2022-08-26T21:37:01.542Z,8.57
2022-08-26T21:39:34.923Z,13.50
2022-08-26T21:42:02.468Z,7.55
2022-08-26T21:44:30.031Z,6.18
2022-08-26T21:46:58.510Z,10.90
2022-08-26T21:49:26.124Z,7.75
2022-08-26T21:51:55.089Z,8.70
2022-08-26T21:54:23.486Z,8.55
2022-08-26T21:56:52.658Z,10.95
2022-08-26T21:59:20.274Z,6.97
2022-08-26T22:01:48.296Z,7.32
2022-08-26T22:04:16.550Z,8.45
2022-08-26T22:06:46.244Z,8.65
2022-08-26T22:09:15.221Z,7.05
2022-08-26T22:11:42.998Z,8.32
2022-08-26T22:14:12.419Z,8.80
2022-08-26T22:16:40.057Z,7.35
2022-08-26T22:19:08.177Z,7.07
2022-08-26T22:21:41.684Z,10.90
2022-08-26T22:24:12.037Z,7.80
2022-08-26T22:26:39.929Z,9.05
2022-08-26T22:29:07.700Z,10.30
2022-08-26T22:31:38.021Z,9.48
2022-08-26T22:34:07.704Z,7.78
2022-08-26T22:36:42.907Z,6.53
2022-08-26T22:39:12.552Z,9.15
2022-08-26T22:41:40.220Z,9.02
2022-08-26T22:44:07.749Z,9.45
2022-08-26T22:46:38.510Z,9.52
2022-08-26T22:49:06.558Z,7.15
2022-08-26T22:51:34.445Z,8.93
2022-08-26T22:54:01.973Z,10.93
2022-08-26T22:56:29.893Z,9.02
2022-08-26T22:58:57.442Z,9.23
2022-08-26T23:01:25.019Z,6.70
2022-08-26T23:03:54.120Z,9.25
2022-08-26T23:06:21.790Z,7.85
2022-08-26T23:08:49.326Z,7.70
2022-08-26T23:11:17.284Z,6.80
2022-08-26T23:13:44.868Z,10.85
2022-08-26T23:16:13.489Z,6.78
2022-08-26T23:18:42.770Z,8.05
2022-08-26T23:21:11.828Z,8.60
2022-08-26T23:23:39.379Z,6.32
2022-08-26T23:26:07.908Z,8.32
2022-08-26T23:28:36.253Z,6.10
2022-08-26T23:31:04.191Z,6.13
2022-08-26T23:33:45.832Z,9.02
2022-08-26T23:36:17.889Z,7.28
2022-08-26T23:38:48.562Z,6.30
2022-08-26T23:41:20.739Z,5.65
2022-08-26T23:43:48.400Z,9.77
2022-08-26T23:46:16.083Z,7.10
2022-08-26T23:48:43.716Z,5.78
2022-08-26T23:51:29.128Z,8.60
2022-08-26T23:53:58.491Z,7.72
2022-08-26T23:56:26.715Z,6.80
2022-08-26T23:58:54.523Z,8.43
